sensor_id;sensor_type;location;lat;lon;timestamp;temperature;humidity
74822;DHT22;63353;48.702;8.884;2023-02-07T00:01:47;-1.20;99.90
74822;DHT22;63353;48.702;8.884;2023-02-07T00:04:18;-1.20;99.90
74822;DHT22;63353;48.702;8.884;2023-02-07T00:06:45;-1.30;99.90
74822;DHT22;63353;48.702;8.884;2023-02-07T00:09:11;-1.40;99.90
74822;DHT22;63353;48.702;8.884;2023-02-07T00:11:37;-1.40;99.90
74822;DHT22;63353;48.702;8.884;2023-02-07T00:14:12;-1.60;99.90
74822;DHT22;63353;48.702;8.884;2023-02-07T00:16:38;-1.50;99.90
74822;DHT22;63353;48.702;8.884;2023-02-07T00:19:10;-1.50;99.90
74822;DHT22;63353;48.702;8.884;2023-02-07T00:21:42;-1.50;99.90
74822;DHT22;63353;48.702;8.884;2023-02-07T00:24:14;-1.60;99.90
74822;DHT22;63353;48.702;8.884;2023-02-07T00:26:39;-1.70;99.90
74822;DHT22;63353;48.702;8.884;2023-02-07T00:29:09;-1.80;99.90
74822;DHT22;63353;48.702;8.884;2023-02-07T00:31:35;-1.90;99.90
74822;DHT22;63353;48.702;8.884;2023-02-07T00:34:02;-1.90;99.90
74822;DHT22;63353;48.702;8.884;2023-02-07T00:36:30;-2.10;99.90
74822;DHT22;63353;48.702;8.884;2023-02-07T00:39:02;-2.10;99.90
74822;DHT22;63353;48.702;8.884;2023-02-07T00:41:29;-2.20;99.90
74822;DHT22;63353;48.702;8.884;2023-02-07T00:43:57;-2.30;99.90
74822;DHT22;63353;48.702;8.884;2023-02-07T00:46:24;-2.40;99.90
74822;DHT22;63353;48.702;8.884;2023-02-07T00:48:50;-2.50;99.90
74822;DHT22;63353;48.702;8.884;2023-02-07T00:51:17;-2.60;99.90
74822;DHT22;63353;48.702;8.884;2023-02-07T00:53:45;-2.60;99.90
74822;DHT22;63353;48.702;8.884;2023-02-07T00:56:13;-2.70;99.90
74822;DHT22;63353;48.702;8.884;2023-02-07T00:58:51;-2.80;99.90
74822;DHT22;63353;48.702;8.884;2023-02-07T01:01:20;-2.90;99.90
74822;DHT22;63353;48.702;8.884;2023-02-07T01:03:49;-2.90;99.90
74822;DHT22;63353;48.702;8.884;2023-02-07T01:06:34;-2.90;99.90
74822;DHT22;63353;48.702;8.884;2023-02-07T01:09:02;-3.00;99.90
74822;DHT22;63353;48.702;8.884;2023-02-07T01:11:32;-3.00;99.90
74822;DHT22;63353;48.702;8.884;2023-02-07T01:14:01;-3.00;99.90
74822;DHT22;63353;48.702;8.884;2023-02-07T01:16:30;-3.10;99.90
74822;DHT22;63353;48.702;8.884;2023-02-07T01:18:57;-3.10;99.90
74822;DHT22;63353;48.702;8.884;2023-02-07T01:21:25;-3.10;99.90
74822;DHT22;63353;48.702;8.884;2023-02-07T01:23:52;-3.10;99.90
74822;DHT22;63353;48.702;8.884;2023-02-07T01:26:24;-3.10;99.90
74822;DHT22;63353;48.702;8.884;2023-02-07T01:28:51;-3.10;99.90
74822;DHT22;63353;48.702;8.884;2023-02-07T01:31:17;-3.30;99.90
74822;DHT22;63353;48.702;8.884;2023-02-07T01:33:43;-3.40;99.90
74822;DHT22;63353;48.702;8.884;2023-02-07T01:36:14;-3.30;99.90
74822;DHT22;63353;48.702;8.884;2023-02-07T01:38:41;-3.40;99.90
74822;DHT22;63353;48.702;8.884;2023-02-07T01:41:07;-3.50;99.90
74822;DHT22;63353;48.702;8.884;2023-02-07T01:43:34;-3.50;99.90
74822;DHT22;63353;48.702;8.884;2023-02-07T01:46:02;-3.50;99.90
74822;DHT22;63353;48.702;8.884;2023-02-07T01:48:30;-3.50;99.90
74822;DHT22;63353;48.702;8.884;2023-02-07T01:51:00;-3.50;99.90
74822;DHT22;63353;48.702;8.884;2023-02-07T01:53:29;-3.40;99.90
74822;DHT22;63353;48.702;8.884;2023-02-07T01:56:09;-3.30;99.90
74822;DHT22;63353;48.702;8.884;2023-02-07T01:58:35;-3.10;99.90
74822;DHT22;63353;48.702;8.884;2023-02-07T02:01:06;-3.00;99.90
74822;DHT22;63353;48.702;8.884;2023-02-07T02:03:37;-2.90;99.90
74822;DHT22;63353;48.702;8.884;2023-02-07T02:06:04;-2.80;99.90
74822;DHT22;63353;48.702;8.884;2023-02-07T02:08:30;-2.80;99.90
74822;DHT22;63353;48.702;8.884;2023-02-07T02:13:48;-2.70;99.90
74822;DHT22;63353;48.702;8.884;2023-02-07T02:16:37;-2.60;99.90
74822;DHT22;63353;48.702;8.884;2023-02-07T02:22:05;-2.60;99.90
74822;DHT22;63353;48.702;8.884;2023-02-07T02:27:59;-2.70;99.90
74822;DHT22;63353;48.702;8.884;2023-02-07T02:33:52;-2.80;99.90
74822;DHT22;63353;48.702;8.884;2023-02-07T02:36:33;-2.90;99.90
74822;DHT22;63353;48.702;8.884;2023-02-07T02:42:16;-2.90;99.90
74822;DHT22;63353;48.702;8.884;2023-02-07T02:44:54;-3.00;99.90
74822;DHT22;63353;48.702;8.884;2023-02-07T02:47:23;-3.10;99.90
74822;DHT22;63353;48.702;8.884;2023-02-07T02:49:51;-3.20;99.90
74822;DHT22;63353;48.702;8.884;2023-02-07T02:52:19;-3.30;99.90
74822;DHT22;63353;48.702;8.884;2023-02-07T02:54:45;-3.40;99.90
74822;DHT22;63353;48.702;8.884;2023-02-07T02:57:48;-3.50;99.90
74822;DHT22;63353;48.702;8.884;2023-02-07T03:00:36;-3.50;99.90
74822;DHT22;63353;48.702;8.884;2023-02-07T03:03:41;-3.60;99.90
74822;DHT22;63353;48.702;8.884;2023-02-07T03:09:28;-3.70;99.90
74822;DHT22;63353;48.702;8.884;2023-02-07T03:20:36;-3.80;99.90
74822;DHT22;63353;48.702;8.884;2023-02-07T03:23:22;-3.90;99.90
74822;DHT22;63353;48.702;8.884;2023-02-07T03:25:49;-4.00;99.90
74822;DHT22;63353;48.702;8.884;2023-02-07T03:28:17;-4.00;99.90
74822;DHT22;63353;48.702;8.884;2023-02-07T03:30:49;-4.00;99.90
74822;DHT22;63353;48.702;8.884;2023-02-07T03:33:19;-4.00;99.90
74822;DHT22;63353;48.702;8.884;2023-02-07T03:36:01;-4.00;99.90
74822;DHT22;63353;48.702;8.884;2023-02-07T03:38:30;-4.00;99.90
74822;DHT22;63353;48.702;8.884;2023-02-07T03:41:07;-4.10;99.90
74822;DHT22;63353;48.702;8.884;2023-02-07T03:43:36;-4.20;99.90
74822;DHT22;63353;48.702;8.884;2023-02-07T03:46:08;-4.20;99.90
74822;DHT22;63353;48.702;8.884;2023-02-07T03:48:43;-4.30;99.90
74822;DHT22;63353;48.702;8.884;2023-02-07T03:51:12;-4.30;99.90
74822;DHT22;63353;48.702;8.884;2023-02-07T03:53:37;-4.40;99.90
74822;DHT22;63353;48.702;8.884;2023-02-07T03:56:04;-4.40;99.90
74822;DHT22;63353;48.702;8.884;2023-02-07T03:58:29;-4.40;99.90
74822;DHT22;63353;48.702;8.884;2023-02-07T04:00:56;-4.40;99.90
74822;DHT22;63353;48.702;8.884;2023-02-07T04:03:21;-4.50;99.90
74822;DHT22;63353;48.702;8.884;2023-02-07T04:05:47;-4.50;99.90
74822;DHT22;63353;48.702;8.884;2023-02-07T04:08:13;-4.50;99.90
74822;DHT22;63353;48.702;8.884;2023-02-07T04:10:39;-4.50;99.90
74822;DHT22;63353;48.702;8.884;2023-02-07T04:13:05;-4.60;99.90
74822;DHT22;63353;48.702;8.884;2023-02-07T04:15:34;-4.60;99.90
74822;DHT22;63353;48.702;8.884;2023-02-07T04:17:59;-4.70;99.90
74822;DHT22;63353;48.702;8.884;2023-02-07T04:20:28;-4.80;99.90
74822;DHT22;63353;48.702;8.884;2023-02-07T04:22:54;-4.90;99.90
74822;DHT22;63353;48.702;8.884;2023-02-07T04:25:19;-5.10;99.90
74822;DHT22;63353;48.702;8.884;2023-02-07T04:27:48;-5.10;99.90
74822;DHT22;63353;48.702;8.884;2023-02-07T04:30:13;-5.20;99.90
74822;DHT22;63353;48.702;8.884;2023-02-07T04:32:39;-5.30;99.90
74822;DHT22;63353;48.702;8.884;2023-02-07T04:35:05;-5.30;99.90
74822;DHT22;63353;48.702;8.884;2023-02-07T04:37:30;-5.40;99.90
74822;DHT22;63353;48.702;8.884;2023-02-07T04:39:56;-5.40;99.90
74822;DHT22;63353;48.702;8.884;2023-02-07T04:42:21;-5.40;99.90
74822;DHT22;63353;48.702;8.884;2023-02-07T04:44:47;-5.50;99.90
74822;DHT22;63353;48.702;8.884;2023-02-07T04:47:13;-5.50;99.90
74822;DHT22;63353;48.702;8.884;2023-02-07T04:49:38;-5.50;99.90
74822;DHT22;63353;48.702;8.884;2023-02-07T04:52:04;-5.60;99.90
74822;DHT22;63353;48.702;8.884;2023-02-07T04:54:30;-5.60;99.90
74822;DHT22;63353;48.702;8.884;2023-02-07T04:56:55;-5.70;99.90
74822;DHT22;63353;48.702;8.884;2023-02-07T04:59:21;-5.70;99.90
74822;DHT22;63353;48.702;8.884;2023-02-07T05:01:47;-5.70;99.90
74822;DHT22;63353;48.702;8.884;2023-02-07T05:04:12;-5.80;99.90
74822;DHT22;63353;48.702;8.884;2023-02-07T05:06:38;-5.80;99.90
74822;DHT22;63353;48.702;8.884;2023-02-07T05:09:04;-5.90;99.90
74822;DHT22;63353;48.702;8.884;2023-02-07T05:11:32;-5.90;99.90
74822;DHT22;63353;48.702;8.884;2023-02-07T05:14:01;-5.90;99.90
74822;DHT22;63353;48.702;8.884;2023-02-07T05:16:27;-5.90;99.90
74822;DHT22;63353;48.702;8.884;2023-02-07T05:18:52;-6.00;99.90
74822;DHT22;63353;48.702;8.884;2023-02-07T05:21:18;-6.00;99.90
74822;DHT22;63353;48.702;8.884;2023-02-07T05:23:50;-6.00;99.90
74822;DHT22;63353;48.702;8.884;2023-02-07T05:26:33;-6.00;99.90
74822;DHT22;63353;48.702;8.884;2023-02-07T05:28:59;-6.10;99.90
74822;DHT22;63353;48.702;8.884;2023-02-07T05:31:34;-6.10;99.90
74822;DHT22;63353;48.702;8.884;2023-02-07T05:34:18;-6.10;99.90
74822;DHT22;63353;48.702;8.884;2023-02-07T05:36:47;-6.10;99.90
74822;DHT22;63353;48.702;8.884;2023-02-07T05:39:12;-6.10;99.90
74822;DHT22;63353;48.702;8.884;2023-02-07T05:41:38;-6.20;99.90
74822;DHT22;63353;48.702;8.884;2023-02-07T05:44:03;-6.10;99.90
74822;DHT22;63353;48.702;8.884;2023-02-07T05:46:29;-6.20;99.90
74822;DHT22;63353;48.702;8.884;2023-02-07T05:48:55;-6.30;99.90
74822;DHT22;63353;48.702;8.884;2023-02-07T05:51:23;-6.30;99.90
74822;DHT22;63353;48.702;8.884;2023-02-07T05:53:49;-6.40;99.90
74822;DHT22;63353;48.702;8.884;2023-02-07T05:56:14;-6.40;99.90
74822;DHT22;63353;48.702;8.884;2023-02-07T05:58:43;-6.40;99.90
74822;DHT22;63353;48.702;8.884;2023-02-07T06:01:12;-6.50;99.90
74822;DHT22;63353;48.702;8.884;2023-02-07T06:03:43;-6.50;99.90
74822;DHT22;63353;48.702;8.884;2023-02-07T06:06:09;-6.60;99.90
74822;DHT22;63353;48.702;8.884;2023-02-07T06:08:35;-6.60;99.90
74822;DHT22;63353;48.702;8.884;2023-02-07T06:11:00;-6.60;99.90
74822;DHT22;63353;48.702;8.884;2023-02-07T06:13:26;-6.60;99.90
74822;DHT22;63353;48.702;8.884;2023-02-07T06:15:51;-6.70;99.90
74822;DHT22;63353;48.702;8.884;2023-02-07T06:18:20;-6.60;99.90
74822;DHT22;63353;48.702;8.884;2023-02-07T06:20:49;-6.40;99.90
74822;DHT22;63353;48.702;8.884;2023-02-07T06:23:15;-6.40;99.90
74822;DHT22;63353;48.702;8.884;2023-02-07T06:25:40;-6.40;99.90
74822;DHT22;63353;48.702;8.884;2023-02-07T06:28:06;-6.50;99.90
74822;DHT22;63353;48.702;8.884;2023-02-07T06:30:32;-6.50;99.90
74822;DHT22;63353;48.702;8.884;2023-02-07T06:33:00;-6.60;99.90
74822;DHT22;63353;48.702;8.884;2023-02-07T06:35:26;-6.70;99.90
74822;DHT22;63353;48.702;8.884;2023-02-07T06:37:52;-6.70;99.90
74822;DHT22;63353;48.702;8.884;2023-02-07T06:40:20;-6.80;99.90
74822;DHT22;63353;48.702;8.884;2023-02-07T06:42:46;-6.80;99.90
74822;DHT22;63353;48.702;8.884;2023-02-07T06:45:21;-6.90;99.90
74822;DHT22;63353;48.702;8.884;2023-02-07T06:47:47;-6.90;99.90
74822;DHT22;63353;48.702;8.884;2023-02-07T06:50:12;-6.90;99.90
74822;DHT22;63353;48.702;8.884;2023-02-07T06:52:41;-6.90;99.90
74822;DHT22;63353;48.702;8.884;2023-02-07T06:55:10;-6.80;99.90
74822;DHT22;63353;48.702;8.884;2023-02-07T06:57:39;-6.70;99.90
74822;DHT22;63353;48.702;8.884;2023-02-07T07:00:05;-6.80;99.90
74822;DHT22;63353;48.702;8.884;2023-02-07T07:02:40;-6.80;99.90
74822;DHT22;63353;48.702;8.884;2023-02-07T07:05:12;-6.80;99.90
74822;DHT22;63353;48.702;8.884;2023-02-07T07:07:43;-6.80;99.90
74822;DHT22;63353;48.702;8.884;2023-02-07T07:10:10;-6.80;99.90
74822;DHT22;63353;48.702;8.884;2023-02-07T07:12:36;-6.80;99.90
74822;DHT22;63353;48.702;8.884;2023-02-07T07:15:02;-6.80;99.90
74822;DHT22;63353;48.702;8.884;2023-02-07T07:17:28;-6.70;99.90
74822;DHT22;63353;48.702;8.884;2023-02-07T07:19:59;-6.60;99.90
74822;DHT22;63353;48.702;8.884;2023-02-07T07:22:28;-6.50;99.90
74822;DHT22;63353;48.702;8.884;2023-02-07T07:25:00;-6.30;99.90
74822;DHT22;63353;48.702;8.884;2023-02-07T07:27:27;-6.20;99.90
74822;DHT22;63353;48.702;8.884;2023-02-07T07:29:52;-6.20;99.90
74822;DHT22;63353;48.702;8.884;2023-02-07T07:32:24;-6.20;99.90
74822;DHT22;63353;48.702;8.884;2023-02-07T07:34:50;-6.10;99.90
74822;DHT22;63353;48.702;8.884;2023-02-07T07:37:16;-6.00;99.90
74822;DHT22;63353;48.702;8.884;2023-02-07T07:39:41;-5.90;99.90
74822;DHT22;63353;48.702;8.884;2023-02-07T07:42:17;-5.80;99.90
74822;DHT22;63353;48.702;8.884;2023-02-07T07:44:43;-5.70;99.90
74822;DHT22;63353;48.702;8.884;2023-02-07T07:47:21;-5.50;99.90
74822;DHT22;63353;48.702;8.884;2023-02-07T07:49:46;-5.40;99.90
74822;DHT22;63353;48.702;8.884;2023-02-07T07:52:15;-5.30;99.90
74822;DHT22;63353;48.702;8.884;2023-02-07T07:54:47;-5.20;99.90
74822;DHT22;63353;48.702;8.884;2023-02-07T07:57:18;-5.00;99.90
74822;DHT22;63353;48.702;8.884;2023-02-07T07:59:47;-4.90;99.90
74822;DHT22;63353;48.702;8.884;2023-02-07T08:02:16;-4.70;99.90
74822;DHT22;63353;48.702;8.884;2023-02-07T08:04:47;-4.50;99.90
74822;DHT22;63353;48.702;8.884;2023-02-07T08:07:19;-4.40;99.90
74822;DHT22;63353;48.702;8.884;2023-02-07T08:09:57;-4.30;99.90
74822;DHT22;63353;48.702;8.884;2023-02-07T08:12:28;-4.10;99.90
74822;DHT22;63353;48.702;8.884;2023-02-07T08:14:54;-3.90;99.90
74822;DHT22;63353;48.702;8.884;2023-02-07T08:17:22;-3.80;99.90
74822;DHT22;63353;48.702;8.884;2023-02-07T08:19:57;-3.60;99.90
74822;DHT22;63353;48.702;8.884;2023-02-07T08:22:22;-3.40;99.90
74822;DHT22;63353;48.702;8.884;2023-02-07T08:24:48;-3.30;99.90
74822;DHT22;63353;48.702;8.884;2023-02-07T08:27:20;-3.10;99.90
74822;DHT22;63353;48.702;8.884;2023-02-07T08:29:45;-3.00;99.90
74822;DHT22;63353;48.702;8.884;2023-02-07T08:32:11;-2.80;99.90
74822;DHT22;63353;48.702;8.884;2023-02-07T08:34:43;-2.70;99.90
74822;DHT22;63353;48.702;8.884;2023-02-07T08:37:10;-2.60;99.90
74822;DHT22;63353;48.702;8.884;2023-02-07T08:39:39;-2.40;99.90
74822;DHT22;63353;48.702;8.884;2023-02-07T08:42:11;-2.40;99.90
74822;DHT22;63353;48.702;8.884;2023-02-07T08:44:43;-2.20;99.90
74822;DHT22;63353;48.702;8.884;2023-02-07T08:47:20;-2.00;99.90
74822;DHT22;63353;48.702;8.884;2023-02-07T08:49:52;-1.80;99.90
74822;DHT22;63353;48.702;8.884;2023-02-07T08:52:23;-1.60;99.90
74822;DHT22;63353;48.702;8.884;2023-02-07T08:54:49;-1.40;99.90
74822;DHT22;63353;48.702;8.884;2023-02-07T08:57:15;-1.40;99.90
74822;DHT22;63353;48.702;8.884;2023-02-07T08:59:44;-1.40;99.90
74822;DHT22;63353;48.702;8.884;2023-02-07T09:02:19;-1.10;99.90
74822;DHT22;63353;48.702;8.884;2023-02-07T09:04:45;-1.00;99.90
74822;DHT22;63353;48.702;8.884;2023-02-07T09:07:11;-0.90;99.90
74822;DHT22;63353;48.702;8.884;2023-02-07T09:09:40;-1.00;99.90
74822;DHT22;63353;48.702;8.884;2023-02-07T09:12:06;-0.80;99.90
74822;DHT22;63353;48.702;8.884;2023-02-07T09:14:32;-0.90;99.90
74822;DHT22;63353;48.702;8.884;2023-02-07T09:17:01;-0.70;99.90
74822;DHT22;63353;48.702;8.884;2023-02-07T09:19:27;-0.70;99.90
74822;DHT22;63353;48.702;8.884;2023-02-07T09:21:52;-0.70;99.90
74822;DHT22;63353;48.702;8.884;2023-02-07T09:24:24;-0.90;99.90
74822;DHT22;63353;48.702;8.884;2023-02-07T09:26:50;-1.00;99.90
74822;DHT22;63353;48.702;8.884;2023-02-07T09:29:19;-0.70;99.90
74822;DHT22;63353;48.702;8.884;2023-02-07T09:31:55;-0.50;99.90
74822;DHT22;63353;48.702;8.884;2023-02-07T09:34:20;-0.30;99.90
74822;DHT22;63353;48.702;8.884;2023-02-07T09:36:46;0.00;99.90
74822;DHT22;63353;48.702;8.884;2023-02-07T09:39:20;0.10;99.90
74822;DHT22;63353;48.702;8.884;2023-02-07T09:47:09;0.40;99.90
74822;DHT22;63353;48.702;8.884;2023-02-07T09:49:43;0.60;99.90
74822;DHT22;63353;48.702;8.884;2023-02-07T09:52:17;0.80;99.90
74822;DHT22;63353;48.702;8.884;2023-02-07T09:54:48;0.80;99.90
74822;DHT22;63353;48.702;8.884;2023-02-07T10:02:47;0.90;99.90
74822;DHT22;63353;48.702;8.884;2023-02-07T10:05:18;1.10;99.90
74822;DHT22;63353;48.702;8.884;2023-02-07T10:07:46;1.30;99.90
74822;DHT22;63353;48.702;8.884;2023-02-07T10:10:18;1.40;99.90
74822;DHT22;63353;48.702;8.884;2023-02-07T10:18:15;1.50;99.90
74822;DHT22;63353;48.702;8.884;2023-02-07T10:20:39;1.60;99.90
74822;DHT22;63353;48.702;8.884;2023-02-07T10:31:37;2.00;99.90
74822;DHT22;63353;48.702;8.884;2023-02-07T10:34:29;2.20;99.90
74822;DHT22;63353;48.702;8.884;2023-02-07T10:36:56;2.10;99.90
74822;DHT22;63353;48.702;8.884;2023-02-07T10:39:35;2.20;99.90
74822;DHT22;63353;48.702;8.884;2023-02-07T10:42:03;2.30;99.90
74822;DHT22;63353;48.702;8.884;2023-02-07T10:44:28;2.40;99.90
74822;DHT22;63353;48.702;8.884;2023-02-07T10:47:03;2.50;99.90
74822;DHT22;63353;48.702;8.884;2023-02-07T10:49:32;2.70;99.90
74822;DHT22;63353;48.702;8.884;2023-02-07T10:54:57;2.90;99.90
74822;DHT22;63353;48.702;8.884;2023-02-07T10:57:24;3.20;99.90
74822;DHT22;63353;48.702;8.884;2023-02-07T11:00:42;3.10;99.90
74822;DHT22;63353;48.702;8.884;2023-02-07T11:02:46;2.90;99.90
74822;DHT22;63353;48.702;8.884;2023-02-07T11:07:40;3.00;99.90
74822;DHT22;63353;48.702;8.884;2023-02-07T11:10:18;2.80;99.90
74822;DHT22;63353;48.702;8.884;2023-02-07T11:12:52;3.10;99.90
74822;DHT22;63353;48.702;8.884;2023-02-07T11:15:21;3.20;99.90
74822;DHT22;63353;48.702;8.884;2023-02-07T11:17:57;3.20;99.90
74822;DHT22;63353;48.702;8.884;2023-02-07T11:20:34;3.50;99.90
74822;DHT22;63353;48.702;8.884;2023-02-07T11:23:06;3.60;99.90
74822;DHT22;63353;48.702;8.884;2023-02-07T11:25:36;3.50;99.90
74822;DHT22;63353;48.702;8.884;2023-02-07T11:28:03;3.30;99.90
74822;DHT22;63353;48.702;8.884;2023-02-07T11:30:34;3.30;99.90
74822;DHT22;63353;48.702;8.884;2023-02-07T11:33:20;3.50;99.90
74822;DHT22;63353;48.702;8.884;2023-02-07T11:36:09;3.70;99.90
74822;DHT22;63353;48.702;8.884;2023-02-07T11:38:56;4.00;99.90
74822;DHT22;63353;48.702;8.884;2023-02-07T11:41:52;4.30;99.90
74822;DHT22;63353;48.702;8.884;2023-02-07T11:44:26;4.20;99.90
74822;DHT22;63353;48.702;8.884;2023-02-07T11:46:55;4.30;99.90
74822;DHT22;63353;48.702;8.884;2023-02-07T11:49:42;4.40;99.90
74822;DHT22;63353;48.702;8.884;2023-02-07T11:52:10;4.60;99.90
74822;DHT22;63353;48.702;8.884;2023-02-07T11:54:40;4.60;99.90
74822;DHT22;63353;48.702;8.884;2023-02-07T11:57:12;4.70;99.90
74822;DHT22;63353;48.702;8.884;2023-02-07T12:03:05;4.30;99.90
74822;DHT22;63353;48.702;8.884;2023-02-07T12:05:39;4.40;99.90
74822;DHT22;63353;48.702;8.884;2023-02-07T12:08:12;4.30;99.90
74822;DHT22;63353;48.702;8.884;2023-02-07T12:10:41;4.50;99.90
74822;DHT22;63353;48.702;8.884;2023-02-07T12:13:38;4.70;99.90
74822;DHT22;63353;48.702;8.884;2023-02-07T12:16:13;4.90;99.90
74822;DHT22;63353;48.702;8.884;2023-02-07T12:19:02;5.10;99.90
74822;DHT22;63353;48.702;8.884;2023-02-07T12:21:39;5.20;99.90
74822;DHT22;63353;48.702;8.884;2023-02-07T12:24:17;5.20;99.90
74822;DHT22;63353;48.702;8.884;2023-02-07T12:26:52;5.00;99.90
74822;DHT22;63353;48.702;8.884;2023-02-07T12:29:55;4.90;99.90
74822;DHT22;63353;48.702;8.884;2023-02-07T12:40:54;5.20;99.90
74822;DHT22;63353;48.702;8.884;2023-02-07T12:43:35;5.50;99.90
74822;DHT22;63353;48.702;8.884;2023-02-07T13:00:30;5.40;93.00
74822;DHT22;63353;48.702;8.884;2023-02-07T13:11:33;6.50;94.60
74822;DHT22;63353;48.702;8.884;2023-02-07T13:19:34;7.40;81.90
74822;DHT22;63353;48.702;8.884;2023-02-07T13:22:14;7.80;87.20
74822;DHT22;63353;48.702;8.884;2023-02-07T13:24:43;7.90;83.60
74822;DHT22;63353;48.702;8.884;2023-02-07T13:27:17;8.10;80.60
74822;DHT22;63353;48.702;8.884;2023-02-07T13:29:53;8.60;75.00
74822;DHT22;63353;48.702;8.884;2023-02-07T13:32:30;8.80;79.90
74822;DHT22;63353;48.702;8.884;2023-02-07T13:35:06;8.60;75.70
74822;DHT22;63353;48.702;8.884;2023-02-07T13:43:50;10.30;67.20
74822;DHT22;63353;48.702;8.884;2023-02-07T13:49:11;10.80;65.80
74822;DHT22;63353;48.702;8.884;2023-02-07T13:51:56;11.40;64.00
74822;DHT22;63353;48.702;8.884;2023-02-07T13:57:22;11.90;64.60
74822;DHT22;63353;48.702;8.884;2023-02-07T14:00:22;13.00;60.60
74822;DHT22;63353;48.702;8.884;2023-02-07T14:02:52;13.10;61.90
74822;DHT22;63353;48.702;8.884;2023-02-07T14:05:38;13.40;59.10
74822;DHT22;63353;48.702;8.884;2023-02-07T14:08:23;13.10;60.30
74822;DHT22;63353;48.702;8.884;2023-02-07T14:10:53;12.90;58.60
74822;DHT22;63353;48.702;8.884;2023-02-07T14:26:57;11.90;56.20
74822;DHT22;63353;48.702;8.884;2023-02-07T14:31:59;11.20;59.10
74822;DHT22;63353;48.702;8.884;2023-02-07T14:34:58;11.10;64.30
74822;DHT22;63353;48.702;8.884;2023-02-07T14:38:00;11.30;64.80
74822;DHT22;63353;48.702;8.884;2023-02-07T14:45:38;11.60;59.20
74822;DHT22;63353;48.702;8.884;2023-02-07T14:51:41;12.80;54.20
74822;DHT22;63353;48.702;8.884;2023-02-07T15:02:34;13.00;52.70
74822;DHT22;63353;48.702;8.884;2023-02-07T15:07:41;12.40;51.50
74822;DHT22;63353;48.702;8.884;2023-02-07T15:10:30;11.80;56.00
74822;DHT22;63353;48.702;8.884;2023-02-07T15:12:57;11.60;51.50
74822;DHT22;63353;48.702;8.884;2023-02-07T15:15:28;11.60;51.10
74822;DHT22;63353;48.702;8.884;2023-02-07T15:18:01;10.70;52.20
74822;DHT22;63353;48.702;8.884;2023-02-07T15:20:29;9.90;52.50
74822;DHT22;63353;48.702;8.884;2023-02-07T15:22:57;8.90;56.40
74822;DHT22;63353;48.702;8.884;2023-02-07T15:25:24;7.50;56.80
74822;DHT22;63353;48.702;8.884;2023-02-07T15:28:27;6.80;58.10
74822;DHT22;63353;48.702;8.884;2023-02-07T15:31:05;5.90;58.00
74822;DHT22;63353;48.702;8.884;2023-02-07T15:36:52;4.30;60.00
74822;DHT22;63353;48.702;8.884;2023-02-07T15:39:23;4.10;62.00
74822;DHT22;63353;48.702;8.884;2023-02-07T15:41:51;3.90;64.50
74822;DHT22;63353;48.702;8.884;2023-02-07T15:44:46;3.70;64.70
74822;DHT22;63353;48.702;8.884;2023-02-07T15:53:07;3.10;68.50
74822;DHT22;63353;48.702;8.884;2023-02-07T15:56:06;2.90;67.10
74822;DHT22;63353;48.702;8.884;2023-02-07T15:58:34;2.70;66.80
74822;DHT22;63353;48.702;8.884;2023-02-07T16:01:05;2.50;68.30
74822;DHT22;63353;48.702;8.884;2023-02-07T16:03:50;2.40;71.10
74822;DHT22;63353;48.702;8.884;2023-02-07T16:06:27;2.40;69.10
74822;DHT22;63353;48.702;8.884;2023-02-07T16:08:58;2.30;71.00
74822;DHT22;63353;48.702;8.884;2023-02-07T16:16:39;1.80;72.70
74822;DHT22;63353;48.702;8.884;2023-02-07T16:22:12;1.50;73.40
74822;DHT22;63353;48.702;8.884;2023-02-07T16:24:42;1.40;74.00
74822;DHT22;63353;48.702;8.884;2023-02-07T16:27:18;1.30;76.20
74822;DHT22;63353;48.702;8.884;2023-02-07T16:29:45;1.20;75.40
74822;DHT22;63353;48.702;8.884;2023-02-07T16:32:12;1.00;76.40
74822;DHT22;63353;48.702;8.884;2023-02-07T16:34:38;0.90;78.60
74822;DHT22;63353;48.702;8.884;2023-02-07T16:37:04;0.80;77.40
74822;DHT22;63353;48.702;8.884;2023-02-07T16:39:30;0.70;78.30
74822;DHT22;63353;48.702;8.884;2023-02-07T16:42:07;0.50;80.60
74822;DHT22;63353;48.702;8.884;2023-02-07T16:44:44;0.30;81.00
74822;DHT22;63353;48.702;8.884;2023-02-07T16:47:14;0.20;85.00
74822;DHT22;63353;48.702;8.884;2023-02-07T16:49:44;0.10;90.50
74822;DHT22;63353;48.702;8.884;2023-02-07T16:52:09;0.00;92.80
74822;DHT22;63353;48.702;8.884;2023-02-07T16:54:41;-0.10;95.00
74822;DHT22;63353;48.702;8.884;2023-02-07T16:57:09;-0.20;98.80
74822;DHT22;63353;48.702;8.884;2023-02-07T16:59:36;-0.40;99.90
74822;DHT22;63353;48.702;8.884;2023-02-07T17:02:12;-0.50;99.90
74822;DHT22;63353;48.702;8.884;2023-02-07T17:04:38;-0.70;99.90
74822;DHT22;63353;48.702;8.884;2023-02-07T17:07:04;-0.80;99.90
74822;DHT22;63353;48.702;8.884;2023-02-07T17:09:32;-1.00;99.90
74822;DHT22;63353;48.702;8.884;2023-02-07T17:11:58;-1.10;99.90
74822;DHT22;63353;48.702;8.884;2023-02-07T17:14:35;-1.10;99.90
74822;DHT22;63353;48.702;8.884;2023-02-07T17:17:02;-1.20;99.90
74822;DHT22;63353;48.702;8.884;2023-02-07T17:19:34;-1.40;99.90
74822;DHT22;63353;48.702;8.884;2023-02-07T17:21:59;-1.40;99.90
74822;DHT22;63353;48.702;8.884;2023-02-07T17:24:28;-1.50;99.90
74822;DHT22;63353;48.702;8.884;2023-02-07T17:26:54;-1.50;99.90
74822;DHT22;63353;48.702;8.884;2023-02-07T17:29:21;-1.60;99.90
74822;DHT22;63353;48.702;8.884;2023-02-07T17:31:47;-1.70;99.90
74822;DHT22;63353;48.702;8.884;2023-02-07T17:34:22;-1.80;99.90
74822;DHT22;63353;48.702;8.884;2023-02-07T17:36:48;-1.80;99.90
74822;DHT22;63353;48.702;8.884;2023-02-07T17:39:16;-1.80;99.90
74822;DHT22;63353;48.702;8.884;2023-02-07T17:41:51;-1.80;99.90
74822;DHT22;63353;48.702;8.884;2023-02-07T17:44:16;-1.90;99.90
74822;DHT22;63353;48.702;8.884;2023-02-07T17:46:48;-2.00;99.90
74822;DHT22;63353;48.702;8.884;2023-02-07T17:49:16;-2.00;99.90
74822;DHT22;63353;48.702;8.884;2023-02-07T17:51:50;-2.10;99.90
74822;DHT22;63353;48.702;8.884;2023-02-07T17:54:16;-2.10;99.90
74822;DHT22;63353;48.702;8.884;2023-02-07T17:56:44;-2.20;99.90
74822;DHT22;63353;48.702;8.884;2023-02-07T17:59:22;-2.30;99.90
74822;DHT22;63353;48.702;8.884;2023-02-07T18:01:48;-2.40;99.90
74822;DHT22;63353;48.702;8.884;2023-02-07T18:04:20;-2.40;99.90
74822;DHT22;63353;48.702;8.884;2023-02-07T18:06:46;-2.50;99.90
74822;DHT22;63353;48.702;8.884;2023-02-07T18:09:21;-2.60;99.90
74822;DHT22;63353;48.702;8.884;2023-02-07T18:11:47;-2.60;99.90
74822;DHT22;63353;48.702;8.884;2023-02-07T18:14:13;-2.70;99.90
74822;DHT22;63353;48.702;8.884;2023-02-07T18:16:45;-2.80;99.90
74822;DHT22;63353;48.702;8.884;2023-02-07T18:19:15;-2.80;99.90
74822;DHT22;63353;48.702;8.884;2023-02-07T18:21:42;-2.90;99.90
74822;DHT22;63353;48.702;8.884;2023-02-07T18:24:09;-2.90;99.90
74822;DHT22;63353;48.702;8.884;2023-02-07T18:26:35;-2.90;99.90
74822;DHT22;63353;48.702;8.884;2023-02-07T18:29:01;-2.90;99.90
74822;DHT22;63353;48.702;8.884;2023-02-07T18:31:32;-2.80;99.90
74822;DHT22;63353;48.702;8.884;2023-02-07T18:34:01;-2.70;99.90
74822;DHT22;63353;48.702;8.884;2023-02-07T18:36:29;-2.70;99.90
74822;DHT22;63353;48.702;8.884;2023-02-07T18:39:01;-2.80;99.90
74822;DHT22;63353;48.702;8.884;2023-02-07T18:41:26;-2.90;99.90